Virtuous Striker — C6XX6 — position and weather

sailwx.info

Track history (hours):
 
Tides and Currents Weather Stations Pressure Air Temp Water Temp Dewpoint Dewpoint Depression Visibility Wind Speed Wind Dir Waves Ship Positions

Virtuous Striker

Last reported at 2017-May-15 00:34 UTC. Time now 2017-Jun-24 17:20 UTC.
Position S 24°23' W 046°00'.
Warning: this ship's position is 40 days out of date.

Length 190 m; draft 11.4 m.

Type: Cargo ship. MMSI: 311025100.

Date/timePositionNaut miles runAvg speedWind from/ knotsBaromVisibWave heightAir tempDewpointWater temp
2017-May-15 00:34S 24°23' W 046°00'111.1
2017-May-15 00:27S 24°23' W 046°02'911.0
2017-May-14 23:39S 24°24' W 046°11'110.4
2017-May-14 23:31S 24°23' W 046°13'510.7
2017-May-14 23:00S 24°20' W 046°17'510.5
2017-May-14 22:31S 24°16' W 046°21'510.4
2017-May-14 22:00S 24°11' W 046°22'5 9.9
2017-May-14 21:30S 24°06' W 046°22'510.1
2017-May-14 21:00S 24°01' W 046°20'4 6.6
2017-May-14 20:25S 23°58' W 046°18'2 0.1
2017-May-13 11:29S 23°57' W 046°19'3 5.9
2017-May-13 11:00S 23°59' W 046°18'4 8.8
2017-May-13 10:30S 24°02' W 046°21'2 4.9
2017-May-13 10:00S 24°05' W 046°22'0 0.9
2017-May-13 09:29S 24°05' W 046°21'0 0.0
2017-May-13 08:56S 24°05' W 046°21'0 0.0
2017-May-13 08:29S 24°05' W 046°21'0 0.1
2017-May-13 07:59S 24°05' W 046°21'0 0.0
2017-May-13 07:26S 24°05' W 046°21'0 0.0
2017-May-13 06:56S 24°05' W 046°21'0 0.0
2017-May-13 06:29S 24°05' W 046°21'0 0.0
2017-May-13 05:59S 24°05' W 046°21'0 0.0
2017-May-13 05:29S 24°05' W 046°21'0 0.0
2017-May-13 04:50S 24°05' W 046°21'0 0.0
2017-May-13 04:29S 24°05' W 046°21'0 0.0
2017-May-13 03:59S 24°05' W 046°21'0 0.0
2017-May-13 03:29S 24°05' W 046°21'0 0.0
2017-May-13 02:56S 24°05' W 046°21'0 0.0
2017-May-13 02:26S 24°05' W 046°21'0 0.0
2017-May-13 01:56S 24°05' W 046°21'0 0.0
2017-May-13 01:29S 24°05' W 046°21'0 0.0
2017-May-13 00:56S 24°05' W 046°21'0 0.0
2017-May-13 00:29S 24°05' W 046°21'0 0.0
2017-May-12 23:56S 24°05' W 046°21'0 0.0
2017-May-12 23:23S 24°05' W 046°21'0 0.0
2017-May-12 22:59S 24°05' W 046°21'0 0.0
2017-May-12 22:29S 24°05' W 046°21'0 0.0
2017-May-12 21:59S 24°05' W 046°21'0 0.0
2017-May-12 21:23S 24°05' W 046°21'0 0.1
2017-May-12 20:53S 24°05' W 046°21'0 0.1
2017-May-12 20:20S 24°05' W 046°21'0 0.0
2017-May-12 19:59S 24°05' W 046°21'0 0.0
2017-May-12 19:29S 24°05' W 046°21'0 0.0
2017-May-12 18:59S 24°05' W 046°21'0 0.0
2017-May-12 18:29S 24°05' W 046°21'0 0.0
2017-May-12 17:59S 24°05' W 046°21'0 0.1
2017-May-12 17:29S 24°05' W 046°21'0 0.0
2017-May-12 16:56S 24°05' W 046°21'0 0.0
2017-May-12 16:26S 24°05' W 046°21'0 0.0
2017-May-12 15:56S 24°05' W 046°21'0 0.0
2017-May-12 15:26S 24°05' W 046°21'0 0.1
2017-May-12 14:59S 24°05' W 046°21'0 0.0
2017-May-12 14:29S 24°05' W 046°21'0 0.1
2017-May-12 13:29S 24°05' W 046°21'0 0.0
2017-May-12 12:59S 24°05' W 046°21'0 0.0
2017-May-12 12:29S 24°05' W 046°21'0 0.0
2017-May-12 11:59S 24°05' W 046°21'0 0.1
2017-May-12 11:29S 24°05' W 046°21'0 0.0
2017-May-12 10:59S 24°05' W 046°21'0 0.1
2017-May-12 10:29S 24°05' W 046°21'0 0.0
2017-May-12 09:59S 24°05' W 046°21'0 0.1
2017-May-12 09:20S 24°05' W 046°21'0 0.0
2017-May-12 08:56S 24°05' W 046°21'0 0.0
2017-May-12 08:29S 24°05' W 046°21'0 0.0
2017-May-12 07:59S 24°05' W 046°21'0 0.0
2017-May-12 07:29S 24°05' W 046°21'0 0.0
2017-May-12 06:56S 24°05' W 046°21'0 0.1
2017-May-12 06:29S 24°05' W 046°21'0 0.0
2017-May-12 05:56S 24°05' W 046°21'0 0.0
2017-May-12 05:17S 24°05' W 046°21'0 0.0
2017-May-12 04:53S 24°05' W 046°21'0 0.1
2017-May-12 04:29S 24°05' W 046°21'0 0.0
2017-May-12 03:56S 24°05' W 046°21'0 0.0
2017-May-12 03:29S 24°05' W 046°21'0 0.1
2017-May-12 02:56S 24°05' W 046°21'0 0.0
2017-May-12 02:29S 24°05' W 046°21'0 0.1
2017-May-12 01:56S 24°05' W 046°21'0 0.1
2017-May-12 01:26S 24°05' W 046°21'0 0.0
2017-May-12 00:59S 24°05' W 046°21'0 0.0
2017-May-12 00:26S 24°05' W 046°21'0 0.0
2017-May-11 23:56S 24°05' W 046°21'0 0.0
2017-May-11 23:23S 24°05' W 046°21'0 0.0
2017-May-11 22:53S 24°05' W 046°21'0 0.0
2017-May-11 22:26S 24°05' W 046°21'0 0.0
2017-May-11 21:59S 24°05' W 046°21'0 0.1
2017-May-11 21:29S 24°05' W 046°21'0 0.0
2017-May-11 20:56S 24°05' W 046°21'0 0.0
2017-May-11 20:29S 24°05' W 046°21'0 0.0
2017-May-11 19:56S 24°05' W 046°21'0 0.0
2017-May-11 19:26S 24°05' W 046°21'0 0.0
2017-May-11 18:56S 24°05' W 046°21'0 0.1
2017-May-11 18:29S 24°05' W 046°21'0 0.2
2017-May-11 17:56S 24°05' W 046°21'0 0.0
2017-May-11 17:23S 24°05' W 046°21'0 0.1
2017-May-11 16:56S 24°05' W 046°21'0 0.1
2017-May-11 16:29S 24°05' W 046°21'0 0.1
2017-May-11 15:59S 24°05' W 046°21'0 0.1
2017-May-11 15:29S 24°05' W 046°21'0 0.1
2017-May-11 14:56S 24°05' W 046°21'0 0.2
2017-May-11 14:26S 24°05' W 046°21'0 0.0
2017-May-11 13:29S 24°05' W 046°21'0 0.1
2017-May-11 12:59S 24°05' W 046°21'0 0.1
2017-May-11 12:26S 24°05' W 046°21'0 0.0
2017-May-11 11:56S 24°05' W 046°21'0 0.0
2017-May-11 11:29S 24°05' W 046°21'0 0.0
2017-May-11 10:53S 24°05' W 046°21'0 0.0
2017-May-11 10:29S 24°05' W 046°21'0 0.0
2017-May-11 09:59S 24°05' W 046°21'0 0.0
2017-May-11 09:26S 24°05' W 046°21'0 0.0
2017-May-11 08:56S 24°05' W 046°21'0 0.0
2017-May-11 08:26S 24°05' W 046°21'0 0.0
2017-May-11 07:59S 24°05' W 046°21'0 0.0
2017-May-11 07:14S 24°05' W 046°21'0 0.0
2017-May-11 06:56S 24°05' W 046°21'0 0.0
2017-May-11 06:29S 24°05' W 046°21'0 0.0
2017-May-11 05:56S 24°05' W 046°21'0 0.0
2017-May-11 05:26S 24°05' W 046°21'0 0.0
2017-May-11 04:59S 24°05' W 046°21'0 0.0
2017-May-11 04:26S 24°05' W 046°21'0 0.0
2017-May-11 03:50S 24°05' W 046°21'0 0.0
2017-May-11 03:23S 24°05' W 046°21'0 0.1
2017-May-11 02:59S 24°05' W 046°21'0 0.0
2017-May-11 02:29S 24°05' W 046°21'0 0.1
2017-May-11 01:59S 24°05' W 046°21'0 0.0
2017-May-11 01:20S 24°05' W 046°21'0 0.1
2017-May-11 00:56S 24°05' W 046°21'0 0.0
2017-May-11 00:20S 24°05' W 046°21'0 0.0
2017-May-10 23:59S 24°05' W 046°21'0 0.1
2017-May-10 23:26S 24°05' W 046°21'0 0.1
2017-May-10 22:59S 24°05' W 046°21'0 0.0
2017-May-10 22:26S 24°05' W 046°21'0 0.0
2017-May-10 21:59S 24°05' W 046°21'0 0.0
2017-May-10 21:29S 24°05' W 046°21'0 0.0
2017-May-10 20:59S 24°05' W 046°21'0 0.0
2017-May-10 20:14S 24°05' W 046°21'0 0.0
2017-May-10 19:56S 24°05' W 046°21'0 0.0
2017-May-10 19:26S 24°05' W 046°21'0 0.0
2017-May-10 18:56S 24°05' W 046°21'0 0.0
2017-May-10 18:23S 24°05' W 046°21'0 0.0
2017-May-10 17:56S 24°05' W 046°21'0 0.0
2017-May-10 17:26S 24°05' W 046°21'0 0.0
2017-May-10 16:56S 24°05' W 046°21'0 0.0
2017-May-10 16:26S 24°05' W 046°21'0 0.0
2017-May-10 15:59S 24°05' W 046°21'0 0.0
2017-May-10 15:29S 24°05' W 046°21'0 0.0
2017-May-10 14:59S 24°05' W 046°21'0 0.0
2017-May-10 13:56S 24°05' W 046°21'0 0.0
2017-May-10 13:29S 24°05' W 046°21'0 0.0
2017-May-10 12:59S 24°05' W 046°21'0 0.0
2017-May-10 12:29S 24°05' W 046°21'0 0.0
2017-May-10 11:56S 24°05' W 046°21'0 0.0
2017-May-10 11:29S 24°05' W 046°21'0 0.0
2017-May-10 10:59S 24°05' W 046°21'0 0.0
2017-May-10 10:29S 24°05' W 046°21'0 0.0
2017-May-10 09:53S 24°05' W 046°21'0 0.0
2017-May-10 09:29S 24°05' W 046°21'0 0.0
2017-May-10 08:56S 24°05' W 046°21'0 0.0
2017-May-10 08:23S 24°05' W 046°21'0 0.0
2017-May-10 07:59S 24°05' W 046°21'0 0.0
2017-May-10 07:29S 24°05' W 046°21'0 0.0
2017-May-10 06:59S 24°05' W 046°21'0 0.0
2017-May-10 06:29S 24°05' W 046°21'0 0.0
2017-May-10 05:29S 24°05' W 046°21'0 0.0
2017-May-10 04:56S 24°05' W 046°21'0 0.0
2017-May-10 04:29S 24°05' W 046°21'0 0.0
2017-May-10 03:56S 24°05' W 046°21'0 0.0
2017-May-10 03:23S 24°05' W 046°21'0 0.1
2017-May-10 02:56S 24°05' W 046°21'0 0.1
2017-May-10 02:29S 24°05' W 046°21'0 0.0
2017-May-10 01:53S 24°05' W 046°21'0 0.0
2017-May-10 01:29S 24°05' W 046°21'0 0.0
2017-May-10 00:59S 24°05' W 046°21'0 0.0
2017-May-10 00:29S 24°05' W 046°21'0 0.0
2017-May-09 23:59S 24°05' W 046°21'0 0.0
2017-May-09 23:26S 24°05' W 046°21'0 0.0
2017-May-09 22:59S 24°05' W 046°21'0 0.0
2017-May-09 22:26S 24°05' W 046°21'0 0.0
2017-May-09 21:56S 24°05' W 046°21'0 0.0
2017-May-09 21:29S 24°05' W 046°21'0 0.0
2017-May-09 20:59S 24°05' W 046°21'0 0.0
2017-May-09 20:29S 24°05' W 046°21'0 0.0
2017-May-09 19:59S 24°05' W 046°21'0 0.0
2017-May-09 19:29S 24°05' W 046°21'0 0.0
2017-May-09 18:56S 24°05' W 046°21'0 0.0
2017-May-09 18:23S 24°05' W 046°21'0 0.0
2017-May-09 17:59S 24°05' W 046°21'0 0.1
2017-May-09 17:26S 24°05' W 046°21'0 0.0
2017-May-09 16:59S 24°05' W 046°21'0 0.0
2017-May-09 16:29S 24°05' W 046°21'0 0.0
2017-May-09 15:56S 24°05' W 046°21'0 0.0
2017-May-09 15:26S 24°05' W 046°21'0 0.1
2017-May-09 14:56S 24°05' W 046°21'0 0.1
2017-May-09 14:29S 24°05' W 046°21'0 0.1
2017-May-09 13:29S 24°05' W 046°21'0 0.0
2017-May-09 12:59S 24°05' W 046°21'0 0.1
2017-May-09 12:29S 24°05' W 046°21'0 0.0
2017-May-09 11:59S 24°05' W 046°21'0 0.0
2017-May-09 11:26S 24°05' W 046°21'0 0.0
2017-May-09 10:59S 24°05' W 046°21'0 0.1
2017-May-09 10:29S 24°05' W 046°21'0 0.1
2017-May-09 09:59S 24°05' W 046°21'0 0.0
2017-May-09 09:26S 24°05' W 046°21'0 0.1
2017-May-09 08:59S 24°05' W 046°21'0 0.0
2017-May-09 08:26S 24°05' W 046°21'0 0.1
2017-May-09 07:56S 24°05' W 046°21'0 0.1
2017-May-09 07:29S 24°05' W 046°21'0 0.0
2017-May-09 06:50S 24°05' W 046°21'0 0.0
2017-May-09 06:29S 24°05' W 046°21'0 0.0
2017-May-09 05:59S 24°05' W 046°21'0 0.0
2017-May-09 05:26S 24°05' W 046°21'0 0.1
2017-May-09 04:59S 24°05' W 046°21'0 0.0
2017-May-09 04:29S 24°05' W 046°21'0 0.0
2017-May-09 03:59S 24°05' W 046°21'0 0.1
2017-May-09 03:29S 24°05' W 046°21'0 0.0
2017-May-09 02:59S 24°05' W 046°21'0 0.0
2017-May-09 02:29S 24°05' W 046°21'0 0.0
2017-May-09 01:59S 24°05' W 046°21'0 0.1
2017-May-09 01:29S 24°05' W 046°21'0 0.0
2017-May-09 00:50S 24°05' W 046°21'0 0.0
2017-May-09 00:20S 24°05' W 046°21'0 0.0
2017-May-08 23:59S 24°05' W 046°21'0 0.0
2017-May-08 23:29S 24°05' W 046°21'0 0.0
2017-May-08 22:56S 24°05' W 046°21'0 0.0
2017-May-08 22:29S 24°05' W 046°21'0 0.0
2017-May-08 21:56S 24°05' W 046°21'0 0.0
2017-May-08 21:29S 24°05' W 046°21'0 0.0
2017-May-08 20:59S 24°05' W 046°21'0 0.0
2017-May-08 20:20S 24°05' W 046°21'0 0.3
2017-May-08 19:59S 24°05' W 046°21'0 0.0
2017-May-08 19:26S 24°05' W 046°21'0 0.2
2017-May-08 18:59S 24°05' W 046°21'0 0.2
2017-May-08 18:29S 24°05' W 046°21'0 0.1
2017-May-08 17:59S 24°05' W 046°21'0 0.1
2017-May-08 17:29S 24°05' W 046°21'0 0.1
2017-May-08 16:59S 24°05' W 046°21'0 0.1
2017-May-08 16:29S 24°05' W 046°21'0 0.1
2017-May-08 15:56S 24°05' W 046°21'0 0.0
2017-May-08 15:29S 24°05' W 046°21'0 0.0
2017-May-08 14:59S 24°05' W 046°21'0 0.0
2017-May-08 14:26S 24°05' W 046°21'0 0.0
2017-May-08 13:29S 24°05' W 046°21'0 0.0
2017-May-08 12:56S 24°05' W 046°21'0 0.0
2017-May-08 12:29S 24°05' W 046°21'0 0.0
2017-May-08 11:59S 24°05' W 046°21'0 0.0
2017-May-08 11:29S 24°05' W 046°21'0 0.0
2017-May-08 10:53S 24°05' W 046°21'0 0.0
2017-May-08 10:29S 24°05' W 046°21'0 0.0
2017-May-08 09:59S 24°05' W 046°21'0 0.0
2017-May-08 09:29S 24°05' W 046°21'0 0.0
2017-May-08 08:59S 24°05' W 046°21'0 0.0
2017-May-08 08:26S 24°05' W 046°21'0 0.0
2017-May-08 07:53S 24°05' W 046°21'0 0.0
2017-May-08 07:29S 24°05' W 046°21'0 0.0
2017-May-08 06:59S 24°05' W 046°21'0 0.0
2017-May-08 06:26S 24°05' W 046°21'0 0.1
2017-May-08 05:53S 24°05' W 046°21'0 0.0
2017-May-08 05:29S 24°05' W 046°21'0 0.0
2017-May-08 04:59S 24°05' W 046°21'0 0.0
2017-May-08 04:29S 24°05' W 046°21'0 0.1
2017-May-08 03:53S 24°05' W 046°21'0 0.1
2017-May-08 03:29S 24°05' W 046°21'0 0.0
2017-May-08 02:59S 24°05' W 046°21'0 0.1
2017-May-08 02:29S 24°05' W 046°21'0 0.0
2017-May-08 01:59S 24°05' W 046°21'0 0.1
2017-May-08 01:20S 24°05' W 046°21'0 0.0
2017-May-08 00:59S 24°05' W 046°21'0 0.0
2017-May-08 00:26S 24°05' W 046°21'0 0.0
2017-May-07 23:59S 24°05' W 046°21'0 0.0
2017-May-07 23:29S 24°05' W 046°21'0 0.0
2017-May-07 22:59S 24°05' W 046°21'0 0.0
2017-May-07 22:14S 24°05' W 046°21'0 0.0
2017-May-07 21:38S 24°05' W 046°21'0 0.0
2017-May-07 21:26S 24°05' W 046°21'0 0.1
2017-May-07 20:59S 24°05' W 046°21'0 0.1
2017-May-07 20:29S 24°05' W 046°21'0 0.1
2017-May-07 19:59S 24°05' W 046°21'0 0.1
2017-May-07 19:29S 24°05' W 046°21'0 0.0
2017-May-07 18:50S 24°05' W 046°21'0 0.0
2017-May-07 18:26S 24°05' W 046°21'0 0.1
2017-May-07 17:59S 24°05' W 046°21'0 0.0
2017-May-07 17:29S 24°05' W 046°21'0 0.0
2017-May-07 16:59S 24°05' W 046°21'0 0.0
2017-May-07 16:26S 24°05' W 046°21'0 0.0
2017-May-07 15:59S 24°05' W 046°21'0 0.0
2017-May-07 15:29S 24°05' W 046°21'0 0.0
2017-May-07 14:59S 24°05' W 046°21'0 0.0
2017-May-07 14:29S 24°05' W 046°21'0 0.0
2017-May-07 13:29S 24°05' W 046°21'0 0.3
2017-May-07 13:00S 24°05' W 046°21'1 2.7
2017-May-07 12:30S 24°06' W 046°22'4 7.3
2017-May-07 12:00S 24°09' W 046°22'  
Track history (hours):
 
Tides and Currents Weather Stations Pressure Air Temp Water Temp Dewpoint Dewpoint Depression Visibility Wind Speed Wind Dir Waves Ship Positions

Virtuous Striker

Last reported at 2017-May-15 00:34 UTC. Time now 2017-Jun-24 17:20 UTC.
Position S 24°23' W 046°00'.
Warning: this ship's position is 40 days out of date.

Length 190 m; draft 11.4 m.

Type: Cargo ship. MMSI: 311025100.

Date/timePositionNaut miles runAvg speedWind from/ knotsBaromVisibWave heightAir tempDewpointWater temp
2017-May-15 00:34S 24°23' W 046°00'111.1
2017-May-15 00:27S 24°23' W 046°02'911.0
2017-May-14 23:39S 24°24' W 046°11'110.4
2017-May-14 23:31S 24°23' W 046°13'510.7
2017-May-14 23:00S 24°20' W 046°17'510.5
2017-May-14 22:31S 24°16' W 046°21'510.4
2017-May-14 22:00S 24°11' W 046°22'5 9.9
2017-May-14 21:30S 24°06' W 046°22'510.1
2017-May-14 21:00S 24°01' W 046°20'4 6.6
2017-May-14 20:25S 23°58' W 046°18'2 0.1
2017-May-13 11:29S 23°57' W 046°19'3 5.9
2017-May-13 11:00S 23°59' W 046°18'4 8.8
2017-May-13 10:30S 24°02' W 046°21'2 4.9
2017-May-13 10:00S 24°05' W 046°22'0 0.9
2017-May-13 09:29S 24°05' W 046°21'0 0.0
2017-May-13 08:56S 24°05' W 046°21'0 0.0
2017-May-13 08:29S 24°05' W 046°21'0 0.1
2017-May-13 07:59S 24°05' W 046°21'0 0.0
2017-May-13 07:26S 24°05' W 046°21'0 0.0
2017-May-13 06:56S 24°05' W 046°21'0 0.0
2017-May-13 06:29S 24°05' W 046°21'0 0.0
2017-May-13 05:59S 24°05' W 046°21'0 0.0
2017-May-13 05:29S 24°05' W 046°21'0 0.0
2017-May-13 04:50S 24°05' W 046°21'0 0.0
2017-May-13 04:29S 24°05' W 046°21'0 0.0
2017-May-13 03:59S 24°05' W 046°21'0 0.0
2017-May-13 03:29S 24°05' W 046°21'0 0.0
2017-May-13 02:56S 24°05' W 046°21'0 0.0
2017-May-13 02:26S 24°05' W 046°21'0 0.0
2017-May-13 01:56S 24°05' W 046°21'0 0.0
2017-May-13 01:29S 24°05' W 046°21'0 0.0
2017-May-13 00:56S 24°05' W 046°21'0 0.0
2017-May-13 00:29S 24°05' W 046°21'0 0.0
2017-May-12 23:56S 24°05' W 046°21'0 0.0
2017-May-12 23:23S 24°05' W 046°21'0 0.0
2017-May-12 22:59S 24°05' W 046°21'0 0.0
2017-May-12 22:29S 24°05' W 046°21'0 0.0
2017-May-12 21:59S 24°05' W 046°21'0 0.0
2017-May-12 21:23S 24°05' W 046°21'0 0.1
2017-May-12 20:53S 24°05' W 046°21'0 0.1
2017-May-12 20:20S 24°05' W 046°21'0 0.0
2017-May-12 19:59S 24°05' W 046°21'0 0.0
2017-May-12 19:29S 24°05' W 046°21'0 0.0
2017-May-12 18:59S 24°05' W 046°21'0 0.0
2017-May-12 18:29S 24°05' W 046°21'0 0.0
2017-May-12 17:59S 24°05' W 046°21'0 0.1
2017-May-12 17:29S 24°05' W 046°21'0 0.0
2017-May-12 16:56S 24°05' W 046°21'0 0.0
2017-May-12 16:26S 24°05' W 046°21'0 0.0
2017-May-12 15:56S 24°05' W 046°21'0 0.0
2017-May-12 15:26S 24°05' W 046°21'0 0.1
2017-May-12 14:59S 24°05' W 046°21'0 0.0
2017-May-12 14:29S 24°05' W 046°21'0 0.1
2017-May-12 13:29S 24°05' W 046°21'0 0.0
2017-May-12 12:59S 24°05' W 046°21'0 0.0
2017-May-12 12:29S 24°05' W 046°21'0 0.0
2017-May-12 11:59S 24°05' W 046°21'0 0.1
2017-May-12 11:29S 24°05' W 046°21'0 0.0
2017-May-12 10:59S 24°05' W 046°21'0 0.1
2017-May-12 10:29S 24°05' W 046°21'0 0.0
2017-May-12 09:59S 24°05' W 046°21'0 0.1
2017-May-12 09:20S 24°05' W 046°21'0 0.0
2017-May-12 08:56S 24°05' W 046°21'0 0.0
2017-May-12 08:29S 24°05' W 046°21'0 0.0
2017-May-12 07:59S 24°05' W 046°21'0 0.0
2017-May-12 07:29S 24°05' W 046°21'0 0.0
2017-May-12 06:56S 24°05' W 046°21'0 0.1
2017-May-12 06:29S 24°05' W 046°21'0 0.0
2017-May-12 05:56S 24°05' W 046°21'0 0.0
2017-May-12 05:17S 24°05' W 046°21'0 0.0
2017-May-12 04:53S 24°05' W 046°21'0 0.1
2017-May-12 04:29S 24°05' W 046°21'0 0.0
2017-May-12 03:56S 24°05' W 046°21'0 0.0
2017-May-12 03:29S 24°05' W 046°21'0 0.1
2017-May-12 02:56S 24°05' W 046°21'0 0.0
2017-May-12 02:29S 24°05' W 046°21'0 0.1
2017-May-12 01:56S 24°05' W 046°21'0 0.1
2017-May-12 01:26S 24°05' W 046°21'0 0.0
2017-May-12 00:59S 24°05' W 046°21'0 0.0
2017-May-12 00:26S 24°05' W 046°21'0 0.0
2017-May-11 23:56S 24°05' W 046°21'0 0.0
2017-May-11 23:23S 24°05' W 046°21'0 0.0
2017-May-11 22:53S 24°05' W 046°21'0 0.0
2017-May-11 22:26S 24°05' W 046°21'0 0.0
2017-May-11 21:59S 24°05' W 046°21'0 0.1
2017-May-11 21:29S 24°05' W 046°21'0 0.0
2017-May-11 20:56S 24°05' W 046°21'0 0.0
2017-May-11 20:29S 24°05' W 046°21'0 0.0
2017-May-11 19:56S 24°05' W 046°21'0 0.0
2017-May-11 19:26S 24°05' W 046°21'0 0.0
2017-May-11 18:56S 24°05' W 046°21'0 0.1
2017-May-11 18:29S 24°05' W 046°21'0 0.2
2017-May-11 17:56S 24°05' W 046°21'0 0.0
2017-May-11 17:23S 24°05' W 046°21'0 0.1
2017-May-11 16:56S 24°05' W 046°21'0 0.1
2017-May-11 16:29S 24°05' W 046°21'0 0.1
2017-May-11 15:59S 24°05' W 046°21'0 0.1
2017-May-11 15:29S 24°05' W 046°21'0 0.1
2017-May-11 14:56S 24°05' W 046°21'0 0.2
2017-May-11 14:26S 24°05' W 046°21'0 0.0
2017-May-11 13:29S 24°05' W 046°21'0 0.1
2017-May-11 12:59S 24°05' W 046°21'0 0.1
2017-May-11 12:26S 24°05' W 046°21'0 0.0
2017-May-11 11:56S 24°05' W 046°21'0 0.0
2017-May-11 11:29S 24°05' W 046°21'0 0.0
2017-May-11 10:53S 24°05' W 046°21'0 0.0
2017-May-11 10:29S 24°05' W 046°21'0 0.0
2017-May-11 09:59S 24°05' W 046°21'0 0.0
2017-May-11 09:26S 24°05' W 046°21'0 0.0
2017-May-11 08:56S 24°05' W 046°21'0 0.0
2017-May-11 08:26S 24°05' W 046°21'0 0.0
2017-May-11 07:59S 24°05' W 046°21'0 0.0
2017-May-11 07:14S 24°05' W 046°21'0 0.0
2017-May-11 06:56S 24°05' W 046°21'0 0.0
2017-May-11 06:29S 24°05' W 046°21'0 0.0
2017-May-11 05:56S 24°05' W 046°21'0 0.0
2017-May-11 05:26S 24°05' W 046°21'0 0.0
2017-May-11 04:59S 24°05' W 046°21'0 0.0
2017-May-11 04:26S 24°05' W 046°21'0 0.0
2017-May-11 03:50S 24°05' W 046°21'0 0.0
2017-May-11 03:23S 24°05' W 046°21'0 0.1
2017-May-11 02:59S 24°05' W 046°21'0 0.0
2017-May-11 02:29S 24°05' W 046°21'0 0.1
2017-May-11 01:59S 24°05' W 046°21'0 0.0
2017-May-11 01:20S 24°05' W 046°21'0 0.1
2017-May-11 00:56S 24°05' W 046°21'0 0.0
2017-May-11 00:20S 24°05' W 046°21'0 0.0
2017-May-10 23:59S 24°05' W 046°21'0 0.1
2017-May-10 23:26S 24°05' W 046°21'0 0.1
2017-May-10 22:59S 24°05' W 046°21'0 0.0
2017-May-10 22:26S 24°05' W 046°21'0 0.0
2017-May-10 21:59S 24°05' W 046°21'0 0.0
2017-May-10 21:29S 24°05' W 046°21'0 0.0
2017-May-10 20:59S 24°05' W 046°21'0 0.0
2017-May-10 20:14S 24°05' W 046°21'0 0.0
2017-May-10 19:56S 24°05' W 046°21'0 0.0
2017-May-10 19:26S 24°05' W 046°21'0 0.0
2017-May-10 18:56S 24°05' W 046°21'0 0.0
2017-May-10 18:23S 24°05' W 046°21'0 0.0
2017-May-10 17:56S 24°05' W 046°21'0 0.0
2017-May-10 17:26S 24°05' W 046°21'0 0.0
2017-May-10 16:56S 24°05' W 046°21'0 0.0
2017-May-10 16:26S 24°05' W 046°21'0 0.0
2017-May-10 15:59S 24°05' W 046°21'0 0.0
2017-May-10 15:29S 24°05' W 046°21'0 0.0
2017-May-10 14:59S 24°05' W 046°21'0 0.0
2017-May-10 13:56S 24°05' W 046°21'0 0.0
2017-May-10 13:29S 24°05' W 046°21'0 0.0
2017-May-10 12:59S 24°05' W 046°21'0 0.0
2017-May-10 12:29S 24°05' W 046°21'0 0.0
2017-May-10 11:56S 24°05' W 046°21'0 0.0
2017-May-10 11:29S 24°05' W 046°21'0 0.0
2017-May-10 10:59S 24°05' W 046°21'0 0.0
2017-May-10 10:29S 24°05' W 046°21'0 0.0
2017-May-10 09:53S 24°05' W 046°21'0 0.0
2017-May-10 09:29S 24°05' W 046°21'0 0.0
2017-May-10 08:56S 24°05' W 046°21'0 0.0
2017-May-10 08:23S 24°05' W 046°21'0 0.0
2017-May-10 07:59S 24°05' W 046°21'0 0.0
2017-May-10 07:29S 24°05' W 046°21'0 0.0
2017-May-10 06:59S 24°05' W 046°21'0 0.0
2017-May-10 06:29S 24°05' W 046°21'0 0.0
2017-May-10 05:29S 24°05' W 046°21'0 0.0
2017-May-10 04:56S 24°05' W 046°21'0 0.0
2017-May-10 04:29S 24°05' W 046°21'0 0.0
2017-May-10 03:56S 24°05' W 046°21'0 0.0
2017-May-10 03:23S 24°05' W 046°21'0 0.1
2017-May-10 02:56S 24°05' W 046°21'0 0.1
2017-May-10 02:29S 24°05' W 046°21'0 0.0
2017-May-10 01:53S 24°05' W 046°21'0 0.0
2017-May-10 01:29S 24°05' W 046°21'0 0.0
2017-May-10 00:59S 24°05' W 046°21'0 0.0
2017-May-10 00:29S 24°05' W 046°21'0 0.0
2017-May-09 23:59S 24°05' W 046°21'0 0.0
2017-May-09 23:26S 24°05' W 046°21'0 0.0
2017-May-09 22:59S 24°05' W 046°21'0 0.0
2017-May-09 22:26S 24°05' W 046°21'0 0.0
2017-May-09 21:56S 24°05' W 046°21'0 0.0
2017-May-09 21:29S 24°05' W 046°21'0 0.0
2017-May-09 20:59S 24°05' W 046°21'0 0.0
2017-May-09 20:29S 24°05' W 046°21'0 0.0
2017-May-09 19:59S 24°05' W 046°21'0 0.0
2017-May-09 19:29S 24°05' W 046°21'0 0.0
2017-May-09 18:56S 24°05' W 046°21'0 0.0
2017-May-09 18:23S 24°05' W 046°21'0 0.0
2017-May-09 17:59S 24°05' W 046°21'0 0.1
2017-May-09 17:26S 24°05' W 046°21'0 0.0
2017-May-09 16:59S 24°05' W 046°21'0 0.0
2017-May-09 16:29S 24°05' W 046°21'0 0.0
2017-May-09 15:56S 24°05' W 046°21'0 0.0
2017-May-09 15:26S 24°05' W 046°21'0 0.1
2017-May-09 14:56S 24°05' W 046°21'0 0.1
2017-May-09 14:29S 24°05' W 046°21'0 0.1
2017-May-09 13:29S 24°05' W 046°21'0 0.0
2017-May-09 12:59S 24°05' W 046°21'0 0.1
2017-May-09 12:29S 24°05' W 046°21'0 0.0
2017-May-09 11:59S 24°05' W 046°21'0 0.0
2017-May-09 11:26S 24°05' W 046°21'0 0.0
2017-May-09 10:59S 24°05' W 046°21'0 0.1
2017-May-09 10:29S 24°05' W 046°21'0 0.1
2017-May-09 09:59S 24°05' W 046°21'0 0.0
2017-May-09 09:26S 24°05' W 046°21'0 0.1
2017-May-09 08:59S 24°05' W 046°21'0 0.0
2017-May-09 08:26S 24°05' W 046°21'0 0.1
2017-May-09 07:56S 24°05' W 046°21'0 0.1
2017-May-09 07:29S 24°05' W 046°21'0 0.0
2017-May-09 06:50S 24°05' W 046°21'0 0.0
2017-May-09 06:29S 24°05' W 046°21'0 0.0
2017-May-09 05:59S 24°05' W 046°21'0 0.0
2017-May-09 05:26S 24°05' W 046°21'0 0.1
2017-May-09 04:59S 24°05' W 046°21'0 0.0
2017-May-09 04:29S 24°05' W 046°21'0 0.0
2017-May-09 03:59S 24°05' W 046°21'0 0.1
2017-May-09 03:29S 24°05' W 046°21'0 0.0
2017-May-09 02:59S 24°05' W 046°21'0 0.0
2017-May-09 02:29S 24°05' W 046°21'0 0.0
2017-May-09 01:59S 24°05' W 046°21'0 0.1
2017-May-09 01:29S 24°05' W 046°21'0 0.0
2017-May-09 00:50S 24°05' W 046°21'0 0.0
2017-May-09 00:20S 24°05' W 046°21'0 0.0
2017-May-08 23:59S 24°05' W 046°21'0 0.0
2017-May-08 23:29S 24°05' W 046°21'0 0.0
2017-May-08 22:56S 24°05' W 046°21'0 0.0
2017-May-08 22:29S 24°05' W 046°21'0 0.0
2017-May-08 21:56S 24°05' W 046°21'0 0.0
2017-May-08 21:29S 24°05' W 046°21'0 0.0
2017-May-08 20:59S 24°05' W 046°21'0 0.0
2017-May-08 20:20S 24°05' W 046°21'0 0.3
2017-May-08 19:59S 24°05' W 046°21'0 0.0
2017-May-08 19:26S 24°05' W 046°21'0 0.2
2017-May-08 18:59S 24°05' W 046°21'0 0.2
2017-May-08 18:29S 24°05' W 046°21'0 0.1
2017-May-08 17:59S 24°05' W 046°21'0 0.1
2017-May-08 17:29S 24°05' W 046°21'0 0.1
2017-May-08 16:59S 24°05' W 046°21'0 0.1
2017-May-08 16:29S 24°05' W 046°21'0 0.1
2017-May-08 15:56S 24°05' W 046°21'0 0.0
2017-May-08 15:29S 24°05' W 046°21'0 0.0
2017-May-08 14:59S 24°05' W 046°21'0 0.0
2017-May-08 14:26S 24°05' W 046°21'0 0.0
2017-May-08 13:29S 24°05' W 046°21'0 0.0
2017-May-08 12:56S 24°05' W 046°21'0 0.0
2017-May-08 12:29S 24°05' W 046°21'0 0.0
2017-May-08 11:59S 24°05' W 046°21'0 0.0
2017-May-08 11:29S 24°05' W 046°21'0 0.0
2017-May-08 10:53S 24°05' W 046°21'0 0.0
2017-May-08 10:29S 24°05' W 046°21'0 0.0
2017-May-08 09:59S 24°05' W 046°21'0 0.0
2017-May-08 09:29S 24°05' W 046°21'0 0.0
2017-May-08 08:59S 24°05' W 046°21'0 0.0
2017-May-08 08:26S 24°05' W 046°21'0 0.0
2017-May-08 07:53S 24°05' W 046°21'0 0.0
2017-May-08 07:29S 24°05' W 046°21'0 0.0
2017-May-08 06:59S 24°05' W 046°21'0 0.0
2017-May-08 06:26S 24°05' W 046°21'0 0.1
2017-May-08 05:53S 24°05' W 046°21'0 0.0
2017-May-08 05:29S 24°05' W 046°21'0 0.0
2017-May-08 04:59S 24°05' W 046°21'0 0.0
2017-May-08 04:29S 24°05' W 046°21'0 0.1
2017-May-08 03:53S 24°05' W 046°21'0 0.1
2017-May-08 03:29S 24°05' W 046°21'0 0.0
2017-May-08 02:59S 24°05' W 046°21'0 0.1
2017-May-08 02:29S 24°05' W 046°21'0 0.0
2017-May-08 01:59S 24°05' W 046°21'0 0.1
2017-May-08 01:20S 24°05' W 046°21'0 0.0
2017-May-08 00:59S 24°05' W 046°21'0 0.0
2017-May-08 00:26S 24°05' W 046°21'0 0.0
2017-May-07 23:59S 24°05' W 046°21'0 0.0
2017-May-07 23:29S 24°05' W 046°21'0 0.0
2017-May-07 22:59S 24°05' W 046°21'0 0.0
2017-May-07 22:14S 24°05' W 046°21'0 0.0
2017-May-07 21:38S 24°05' W 046°21'0 0.0
2017-May-07 21:26S 24°05' W 046°21'0 0.1
2017-May-07 20:59S 24°05' W 046°21'0 0.1
2017-May-07 20:29S 24°05' W 046°21'0 0.1
2017-May-07 19:59S 24°05' W 046°21'0 0.1
2017-May-07 19:29S 24°05' W 046°21'0 0.0
2017-May-07 18:50S 24°05' W 046°21'0 0.0
2017-May-07 18:26S 24°05' W 046°21'0 0.1
2017-May-07 17:59S 24°05' W 046°21'0 0.0
2017-May-07 17:29S 24°05' W 046°21'0 0.0
2017-May-07 16:59S 24°05' W 046°21'0 0.0
2017-May-07 16:26S 24°05' W 046°21'0 0.0
2017-May-07 15:59S 24°05' W 046°21'0 0.0
2017-May-07 15:29S 24°05' W 046°21'0 0.0
2017-May-07 14:59S 24°05' W 046°21'0 0.0
2017-May-07 14:29S 24°05' W 046°21'0 0.0
2017-May-07 13:29S 24°05' W 046°21'0 0.3
2017-May-07 13:00S 24°05' W 046°21'1 2.7
2017-May-07 12:30S 24°06' W 046°22'4 7.3
2017-May-07 12:00S 24°09' W 046°22'  

Dump ship's entire track history